createdAt,value
2019-04-04T00:00:28.824Z,8.33
2019-04-04T00:02:57.815Z,9.00
2019-04-04T00:05:26.540Z,8.73
2019-04-04T00:07:55.186Z,8.00
2019-04-04T00:10:24.146Z,9.00
2019-04-04T00:12:52.790Z,7.90
2019-04-04T00:15:21.426Z,8.87
2019-04-04T00:17:50.107Z,7.80
2019-04-04T00:20:18.735Z,9.10
2019-04-04T00:22:47.952Z,8.87
2019-04-04T00:25:16.598Z,7.67
2019-04-04T00:27:45.349Z,8.63
2019-04-04T00:30:16.149Z,8.07
2019-04-04T00:32:45.138Z,8.30
2019-04-04T00:35:13.794Z,8.73
2019-04-04T00:37:42.762Z,8.13
2019-04-04T00:40:11.862Z,8.50
2019-04-04T00:42:41.008Z,8.70
2019-04-04T00:45:09.739Z,8.30
2019-04-04T00:47:38.383Z,8.63
2019-04-04T00:50:07.222Z,8.70
2019-04-04T00:52:36.237Z,8.60
2019-04-04T00:55:06.020Z,8.33
2019-04-04T00:57:34.686Z,8.60
2019-04-04T01:00:03.608Z,8.30
2019-04-04T01:02:32.839Z,7.90
2019-04-04T01:05:02.227Z,8.30
2019-04-04T01:07:31.108Z,8.10
2019-04-04T01:10:00.025Z,8.03
2019-04-04T01:12:28.943Z,8.83
2019-04-04T01:14:58.098Z,8.43
2019-04-04T01:17:28.000Z,8.20
2019-04-04T01:19:57.034Z,7.90
2019-04-04T01:22:25.836Z,7.83
2019-04-04T01:24:54.802Z,7.57
2019-04-04T01:27:23.451Z,8.43
2019-04-04T01:29:52.393Z,8.37
2019-04-04T01:32:21.297Z,8.20
2019-04-04T01:34:50.021Z,8.67
2019-04-04T01:37:20.901Z,9.00
2019-04-04T01:39:49.551Z,8.63
2019-04-04T01:42:18.234Z,8.50
2019-04-04T01:44:46.883Z,8.47
2019-04-04T01:47:16.965Z,8.33
2019-04-04T01:49:46.282Z,8.80
2019-04-04T01:52:14.938Z,8.70
2019-04-04T01:54:43.984Z,9.33
2019-04-04T01:57:12.954Z,9.93
2019-04-04T01:59:41.976Z,8.60
2019-04-04T02:02:12.263Z,8.63
2019-04-04T02:04:40.928Z,9.03
2019-04-04T02:07:09.563Z,8.80
2019-04-04T02:09:38.216Z,8.60
2019-04-04T02:12:07.971Z,9.03
2019-04-04T02:14:37.550Z,8.60
2019-04-04T02:17:06.847Z,8.67
2019-04-04T02:19:35.850Z,9.37
2019-04-04T02:22:04.631Z,9.00
2019-04-04T02:24:33.670Z,8.77
2019-04-04T02:27:02.318Z,8.97
2019-04-04T02:29:31.270Z,8.70
2019-04-04T02:32:01.160Z,8.73
2019-04-04T02:34:29.959Z,9.37
2019-04-04T02:36:58.603Z,9.20
2019-04-04T02:39:27.338Z,9.30
2019-04-04T02:41:56.297Z,9.37
2019-04-04T02:44:25.123Z,8.93
2019-04-04T02:46:54.390Z,9.10
2019-04-04T02:49:23.039Z,8.87
2019-04-04T02:51:52.046Z,9.97
2019-04-04T02:54:24.209Z,8.83
2019-04-04T02:56:51.122Z,9.53
2019-04-04T02:59:21.455Z,9.70
2019-04-04T03:01:50.128Z,9.40
2019-04-04T03:04:18.777Z,9.17
2019-04-04T03:06:48.370Z,9.33
2019-04-04T03:09:17.086Z,8.70
2019-04-04T03:11:45.862Z,9.73
2019-04-04T03:14:14.507Z,9.37
2019-04-04T03:16:43.865Z,9.73
2019-04-04T03:19:12.824Z,9.20
2019-04-04T03:21:41.901Z,9.87
2019-04-04T03:24:10.546Z,8.53
2019-04-04T03:26:39.183Z,9.73
2019-04-04T03:29:10.431Z,9.50
2019-04-04T03:31:39.014Z,9.30
2019-04-04T03:34:11.320Z,9.40
2019-04-04T03:36:38.700Z,9.07
2019-04-04T03:39:08.083Z,10.17
2019-04-04T03:41:37.122Z,9.40
2019-04-04T03:44:06.044Z,8.53
2019-04-04T03:46:38.759Z,9.67
2019-04-04T03:49:05.115Z,9.00
2019-04-04T03:51:37.068Z,9.33
2019-04-04T03:54:07.755Z,9.57
2019-04-04T03:56:39.386Z,8.20
2019-04-04T03:59:07.220Z,9.00
2019-04-04T04:01:35.904Z,9.13
2019-04-04T04:04:04.615Z,9.20
2019-04-04T04:06:33.360Z,9.80
2019-04-04T04:09:02.635Z,8.47
2019-04-04T04:11:31.320Z,9.40
2019-04-04T04:14:00.015Z,9.30
2019-04-04T04:16:29.417Z,9.33
2019-04-04T04:18:58.059Z,9.20
2019-04-04T04:21:27.020Z,8.27
2019-04-04T04:23:56.927Z,9.63
2019-04-04T04:26:26.209Z,9.23
2019-04-04T04:28:54.830Z,8.03
2019-04-04T04:31:23.484Z,9.20
2019-04-04T04:33:52.464Z,9.30
2019-04-04T04:36:21.249Z,9.00
2019-04-04T04:38:50.185Z,8.80
2019-04-04T04:41:20.473Z,8.90
2019-04-04T04:43:49.777Z,8.97
2019-04-04T04:46:18.773Z,9.50
2019-04-04T04:48:47.968Z,10.13
2019-04-04T04:51:16.639Z,9.33
2019-04-04T04:53:45.370Z,9.10
2019-04-04T04:56:17.339Z,8.70
2019-04-04T04:58:45.431Z,9.03
2019-04-04T05:01:14.096Z,8.97
2019-04-04T05:03:42.975Z,8.23
2019-04-04T05:06:11.868Z,9.00
2019-04-04T05:08:41.018Z,9.33
2019-04-04T05:11:10.452Z,9.00
2019-04-04T05:13:39.410Z,8.97
2019-04-04T05:16:08.943Z,9.57
2019-04-04T05:18:38.029Z,9.40
2019-04-04T05:21:06.697Z,8.93
2019-04-04T05:23:35.623Z,9.27
2019-04-04T05:26:04.435Z,9.07
2019-04-04T05:28:33.508Z,9.33
2019-04-04T05:31:02.408Z,8.80
2019-04-04T05:33:31.671Z,8.37
2019-04-04T05:36:00.537Z,9.80
2019-04-04T05:38:29.640Z,9.17
2019-04-04T05:40:58.582Z,9.23
2019-04-04T05:43:28.322Z,9.17
2019-04-04T05:45:57.284Z,8.60
2019-04-04T05:48:28.782Z,9.53
2019-04-04T05:50:56.335Z,8.70
2019-04-04T05:53:25.044Z,8.77
2019-04-04T05:55:53.839Z,9.23
2019-04-04T05:58:22.903Z,8.67
2019-04-04T06:00:51.620Z,9.40
2019-04-04T06:03:20.382Z,8.60
2019-04-04T06:05:49.140Z,8.73
2019-04-04T06:08:18.133Z,8.40
2019-04-04T06:10:47.994Z,9.47
2019-04-04T06:13:17.519Z,8.17
2019-04-04T06:15:46.743Z,9.20
2019-04-04T06:18:15.428Z,8.90
2019-04-04T06:20:44.078Z,8.90
2019-04-04T06:23:12.746Z,8.77
2019-04-04T06:25:41.386Z,9.00
2019-04-04T06:28:12.004Z,8.83
2019-04-04T06:30:43.354Z,9.38
2019-04-04T06:33:10.913Z,8.80
2019-04-04T06:35:40.071Z,7.90
2019-04-04T06:38:09.171Z,8.60
2019-04-04T06:40:38.256Z,8.43
2019-04-04T06:43:10.613Z,7.63
2019-04-04T06:45:37.590Z,7.53
2019-04-04T06:48:06.242Z,8.70
2019-04-04T06:50:38.852Z,8.30
2019-04-04T06:53:06.267Z,7.67
2019-04-04T06:55:39.740Z,7.80
2019-04-04T06:58:08.449Z,8.07
2019-04-04T07:00:35.978Z,8.40
2019-04-04T07:03:04.638Z,8.18
2019-04-04T07:05:37.923Z,7.72
2019-04-04T07:08:04.663Z,7.72
2019-04-04T07:10:34.032Z,7.42
2019-04-04T07:13:14.870Z,8.20
2019-04-04T07:15:45.884Z,7.92
2019-04-04T07:18:03.732Z,7.37
2019-04-04T07:20:32.372Z,7.62
2019-04-04T07:23:01.268Z,7.12
2019-04-04T07:25:29.955Z,7.42
2019-04-04T07:27:58.678Z,7.20
2019-04-04T07:30:28.469Z,7.53
2019-04-04T07:32:57.918Z,7.60
2019-04-04T07:35:26.874Z,8.23
2019-04-04T07:37:57.521Z,7.17
2019-04-04T07:40:26.264Z,7.10
2019-04-04T07:42:54.899Z,6.80
2019-04-04T07:45:25.960Z,6.58
2019-04-04T07:47:53.959Z,6.55
2019-04-04T07:50:24.138Z,7.33
2019-04-04T07:52:53.025Z,6.42
2019-04-04T07:55:21.686Z,6.75
2019-04-04T07:57:51.151Z,7.12
2019-04-04T08:00:20.462Z,6.03
2019-04-04T08:02:49.095Z,6.40
2019-04-04T08:05:17.791Z,6.50
2019-04-04T08:07:46.447Z,6.45
2019-04-04T08:10:20.783Z,6.47
2019-04-04T08:12:45.655Z,6.65
2019-04-04T08:15:14.422Z,6.58
2019-04-04T08:17:43.081Z,6.25
2019-04-04T08:20:12.105Z,6.65
2019-04-04T08:22:40.734Z,6.70
2019-04-04T08:25:09.565Z,6.65
2019-04-04T08:27:38.213Z,6.92
2019-04-04T08:30:07.776Z,6.17
2019-04-04T08:32:36.435Z,6.08
2019-04-04T08:35:06.649Z,6.42
2019-04-04T08:37:35.343Z,5.87
2019-04-04T08:40:04.783Z,6.08
2019-04-04T08:42:33.459Z,6.00
2019-04-04T08:45:02.105Z,5.47
2019-04-04T08:47:30.787Z,5.83
2019-04-04T08:49:59.743Z,5.55
2019-04-04T08:52:28.398Z,5.90
2019-04-04T08:54:57.403Z,5.40
2019-04-04T08:57:26.401Z,6.25
2019-04-04T08:59:55.304Z,5.90
2019-04-04T09:02:24.286Z,5.40
2019-04-04T09:04:53.278Z,5.70
2019-04-04T09:07:21.930Z,5.53
2019-04-04T09:09:51.038Z,5.50
2019-04-04T09:12:19.942Z,4.97
2019-04-04T09:14:48.573Z,5.20
2019-04-04T09:17:17.219Z,5.30
2019-04-04T09:19:45.856Z,4.97
2019-04-04T09:22:14.821Z,4.58
2019-04-04T09:24:43.780Z,5.00
2019-04-04T09:27:12.647Z,4.80
2019-04-04T09:29:41.565Z,4.87
2019-04-04T09:32:10.587Z,4.28
2019-04-04T09:34:39.399Z,4.42
2019-04-04T09:37:08.883Z,4.53
2019-04-04T09:39:37.704Z,4.53
2019-04-04T09:42:06.491Z,4.67
2019-04-04T09:44:35.746Z,4.30
2019-04-04T09:47:05.612Z,4.62
2019-04-04T09:49:34.796Z,4.75
2019-04-04T09:52:03.434Z,5.33
2019-04-04T09:54:32.086Z,4.45
2019-04-04T09:57:00.764Z,4.92
2019-04-04T09:59:29.813Z,4.60
2019-04-04T10:01:58.454Z,5.05
2019-04-04T10:04:27.442Z,4.62
2019-04-04T10:06:56.104Z,4.60
2019-04-04T10:09:24.809Z,4.28
2019-04-04T10:11:53.867Z,4.50
2019-04-04T10:14:22.489Z,5.35
2019-04-04T10:16:51.212Z,4.42
2019-04-04T10:19:19.851Z,4.70
2019-04-04T10:21:48.554Z,4.45
2019-04-04T10:24:17.612Z,4.22
2019-04-04T10:26:46.273Z,4.80
2019-04-04T10:29:15.055Z,4.90
2019-04-04T10:31:44.073Z,4.85
2019-04-04T10:34:12.835Z,5.37
2019-04-04T10:36:41.805Z,5.30
2019-04-04T10:39:13.167Z,5.15
2019-04-04T10:41:42.506Z,4.95
2019-04-04T10:44:11.268Z,4.87
2019-04-04T10:46:39.908Z,5.03
2019-04-04T10:49:08.806Z,4.70
2019-04-04T10:51:37.692Z,4.55
2019-04-04T10:54:06.338Z,5.10
2019-04-04T10:56:35.326Z,4.70
2019-04-04T10:59:04.350Z,4.50
2019-04-04T11:01:33.031Z,4.80
2019-04-04T11:04:01.800Z,4.65
2019-04-04T11:06:30.479Z,5.37
2019-04-04T11:08:59.487Z,4.97
2019-04-04T11:11:28.205Z,4.65
2019-04-04T11:13:57.281Z,5.10
2019-04-04T11:16:30.268Z,4.40
2019-04-04T11:18:56.646Z,4.58
2019-04-04T11:21:25.378Z,3.92
2019-04-04T11:23:54.722Z,3.42
2019-04-04T11:26:23.374Z,4.28
2019-04-04T11:28:52.613Z,4.35
2019-04-04T11:31:21.278Z,3.30
2019-04-04T11:33:49.989Z,3.70
2019-04-04T11:36:19.048Z,3.52
2019-04-04T11:38:48.040Z,3.72
2019-04-04T11:41:16.680Z,4.22
2019-04-04T11:43:45.686Z,4.15
2019-04-04T11:46:14.382Z,3.90
2019-04-04T11:48:43.408Z,3.92
2019-04-04T11:51:12.103Z,3.85
2019-04-04T11:53:40.798Z,3.17
2019-04-04T11:56:09.515Z,3.40
2019-04-04T11:58:38.202Z,3.50
2019-04-04T12:01:09.217Z,3.60
2019-04-04T12:03:37.866Z,3.37
2019-04-04T12:06:06.551Z,3.35
2019-04-04T12:08:35.221Z,3.70
2019-04-04T12:11:04.026Z,3.22
2019-04-04T12:13:32.723Z,4.72
2019-04-04T12:16:01.508Z,3.80
2019-04-04T12:18:30.271Z,3.80
2019-04-04T12:20:59.194Z,3.70
2019-04-04T12:23:28.185Z,3.77
2019-04-04T12:25:57.168Z,4.62
2019-04-04T12:28:25.844Z,3.80
2019-04-04T12:30:54.554Z,3.60
2019-04-04T12:33:24.336Z,3.00
2019-04-04T12:35:52.997Z,3.08
2019-04-04T12:38:21.690Z,2.72
2019-04-04T12:40:50.396Z,3.20
2019-04-04T12:43:19.091Z,3.12
2019-04-04T12:45:48.097Z,3.58
2019-04-04T12:48:17.033Z,3.37
2019-04-04T12:50:48.319Z,3.60
2019-04-04T12:53:16.461Z,3.58
2019-04-04T12:55:45.143Z,3.20
2019-04-04T12:58:13.783Z,3.70
2019-04-04T13:00:42.456Z,3.33
2019-04-04T13:03:11.126Z,3.58
2019-04-04T13:05:40.102Z,3.10
2019-04-04T13:08:08.754Z,3.70
2019-04-04T13:10:37.432Z,2.72
2019-04-04T13:13:06.087Z,3.25
2019-04-04T13:15:34.794Z,3.22
2019-04-04T13:18:03.789Z,3.33
2019-04-04T13:20:32.534Z,4.20
2019-04-04T13:23:01.485Z,3.58
2019-04-04T13:25:30.227Z,4.22
2019-04-04T13:27:59.181Z,4.30
2019-04-04T13:30:27.913Z,4.35
2019-04-04T13:32:56.570Z,3.50
2019-04-04T13:35:25.307Z,3.87
2019-04-04T13:37:53.989Z,4.15
2019-04-04T13:40:22.686Z,5.00
2019-04-04T13:42:52.954Z,4.22
2019-04-04T13:45:24.766Z,4.92
2019-04-04T13:47:53.094Z,4.92
2019-04-04T13:50:22.143Z,4.62
2019-04-04T13:52:50.895Z,4.70
2019-04-04T13:55:19.606Z,4.35
2019-04-04T13:57:48.327Z,4.15
2019-04-04T14:00:17.634Z,3.52
2019-04-04T14:02:46.594Z,3.77
2019-04-04T14:05:15.383Z,3.60
2019-04-04T14:07:44.273Z,3.42
2019-04-04T14:10:16.893Z,3.10
2019-04-04T14:12:43.585Z,3.27
2019-04-04T14:15:12.751Z,3.40
2019-04-04T14:17:43.831Z,3.37
2019-04-04T14:20:11.997Z,3.75
2019-04-04T14:22:40.938Z,3.70
2019-04-04T14:25:10.232Z,3.02
2019-04-04T14:27:38.936Z,3.62
2019-04-04T14:30:08.510Z,3.20
2019-04-04T14:32:37.360Z,3.42
2019-04-04T14:35:06.467Z,3.25
2019-04-04T14:37:35.130Z,3.12
2019-04-04T14:40:03.994Z,2.95
2019-04-04T14:42:32.964Z,3.70
2019-04-04T14:45:02.201Z,3.10
2019-04-04T14:47:33.147Z,3.08
2019-04-04T14:50:04.638Z,3.27
2019-04-04T14:52:32.863Z,3.08
2019-04-04T14:55:01.864Z,3.40
2019-04-04T14:57:30.592Z,2.85
2019-04-04T14:59:59.226Z,3.30
2019-04-04T15:02:27.899Z,2.90
2019-04-04T15:04:56.586Z,3.20
2019-04-04T15:07:25.317Z,2.87
2019-04-04T15:09:53.966Z,2.83
2019-04-04T15:12:22.636Z,3.08
2019-04-04T15:14:51.906Z,2.67
2019-04-04T15:17:20.526Z,2.90
2019-04-04T15:19:49.180Z,3.33
2019-04-04T15:22:18.432Z,3.08
2019-04-04T15:24:47.175Z,3.20
2019-04-04T15:27:15.160Z,3.20
2019-04-04T15:29:43.853Z,2.90
2019-04-04T15:32:12.631Z,3.20
2019-04-04T15:34:41.638Z,3.30
2019-04-04T15:37:10.318Z,2.72
2019-04-04T15:39:39.623Z,2.87
2019-04-04T15:42:08.921Z,2.70
2019-04-04T15:44:37.853Z,3.40
2019-04-04T15:47:06.634Z,2.77
2019-04-04T15:49:35.342Z,2.90
2019-04-04T15:52:04.014Z,2.90
2019-04-04T15:54:32.723Z,3.37
2019-04-04T15:57:01.447Z,2.70
2019-04-04T15:59:30.342Z,2.47
2019-04-04T16:01:59.050Z,2.77
2019-04-04T16:04:27.733Z,3.15
2019-04-04T16:06:56.436Z,2.72
2019-04-04T16:09:25.131Z,2.65
2019-04-04T16:11:54.196Z,2.70
2019-04-04T16:14:23.115Z,2.77
2019-04-04T16:16:51.822Z,2.80
2019-04-04T16:19:20.578Z,2.90
2019-04-04T16:21:49.281Z,2.50
2019-04-04T16:24:17.963Z,2.80
2019-04-04T16:26:46.664Z,2.87
2019-04-04T16:29:15.450Z,2.60
2019-04-04T16:31:44.148Z,2.62
2019-04-04T16:34:12.849Z,2.65
2019-04-04T16:36:41.631Z,3.20
2019-04-04T16:39:10.327Z,3.02
2019-04-04T16:41:38.961Z,2.72
2019-04-04T16:44:07.803Z,3.05
2019-04-04T16:46:36.727Z,3.00
2019-04-04T16:49:05.407Z,3.00
2019-04-04T16:51:34.674Z,2.90
2019-04-04T16:54:03.436Z,2.80
2019-04-04T16:56:32.163Z,3.00
2019-04-04T16:59:00.862Z,3.58
2019-04-04T17:01:29.697Z,3.55
2019-04-04T17:04:01.704Z,3.45
2019-04-04T17:06:29.140Z,3.08
2019-04-04T17:08:57.791Z,3.37
2019-04-04T17:11:26.563Z,3.00
2019-04-04T17:13:55.290Z,3.10
2019-04-04T17:16:23.976Z,3.17
2019-04-04T17:18:52.715Z,3.08
2019-04-04T17:21:21.374Z,3.22
2019-04-04T17:23:50.560Z,3.35
2019-04-04T17:26:19.491Z,2.95
2019-04-04T17:28:48.403Z,3.00
2019-04-04T17:31:17.955Z,3.27
2019-04-04T17:33:47.105Z,3.27
2019-04-04T17:36:15.953Z,3.33
2019-04-04T17:38:44.842Z,3.20
2019-04-04T17:41:13.966Z,3.95
2019-04-04T17:43:42.820Z,2.98
2019-04-04T17:46:11.683Z,3.50
2019-04-04T17:48:40.362Z,3.50
2019-04-04T17:51:09.146Z,3.40
2019-04-04T17:53:38.115Z,3.45
2019-04-04T17:56:07.542Z,3.50
2019-04-04T17:58:36.800Z,3.57
2019-04-04T18:01:06.930Z,4.00
2019-04-04T18:03:35.600Z,4.25
2019-04-04T18:06:04.519Z,3.00
2019-04-04T18:08:33.211Z,3.40
2019-04-04T18:11:01.944Z,3.72
2019-04-04T18:13:32.209Z,3.72
2019-04-04T18:16:01.114Z,3.52
2019-04-04T18:18:30.403Z,3.75
2019-04-04T18:20:59.302Z,3.70
2019-04-04T18:23:28.042Z,3.77
2019-04-04T18:25:56.679Z,3.75
2019-04-04T18:28:25.563Z,4.20
2019-04-04T18:30:55.076Z,3.00
2019-04-04T18:33:24.082Z,3.50
2019-04-04T18:35:53.049Z,3.87
2019-04-04T18:38:21.828Z,3.73
2019-04-04T18:40:51.052Z,3.60
2019-04-04T18:43:19.695Z,3.50
2019-04-04T18:45:48.399Z,4.07
2019-04-04T18:48:17.045Z,3.90
2019-04-04T18:50:45.691Z,3.67
2019-04-04T18:53:14.353Z,4.03
2019-04-04T18:55:43.007Z,3.90
2019-04-04T18:58:11.661Z,4.15
2019-04-04T19:00:40.334Z,3.87
2019-04-04T19:03:09.134Z,4.03
2019-04-04T19:05:38.160Z,4.23
2019-04-04T19:08:06.945Z,4.37
2019-04-04T19:10:35.907Z,4.40
2019-04-04T19:13:05.822Z,4.50
2019-04-04T19:15:35.125Z,4.53
2019-04-04T19:18:04.181Z,3.97
2019-04-04T19:20:33.340Z,4.20
2019-04-04T19:23:02.159Z,4.27
2019-04-04T19:25:30.832Z,4.20
2019-04-04T19:27:59.478Z,4.47
2019-04-04T19:30:28.187Z,4.77
2019-04-04T19:32:56.829Z,4.50
2019-04-04T19:35:25.802Z,4.47
2019-04-04T19:38:00.232Z,4.10
2019-04-04T19:40:24.920Z,4.73
2019-04-04T19:42:53.602Z,4.00
2019-04-04T19:45:22.258Z,4.53
2019-04-04T19:47:50.975Z,4.73
2019-04-04T19:50:19.619Z,4.67
2019-04-04T19:52:50.367Z,4.03
2019-04-04T19:55:19.459Z,4.80
2019-04-04T19:57:48.148Z,4.30
2019-04-04T20:00:17.235Z,4.27
2019-04-04T20:02:46.739Z,4.33
2019-04-04T20:05:15.939Z,4.23
2019-04-04T20:07:44.830Z,4.30
2019-04-04T20:10:13.487Z,4.40
2019-04-04T20:12:42.514Z,4.03
2019-04-04T20:15:11.427Z,3.97
2019-04-04T20:17:40.071Z,4.27
2019-04-04T20:20:09.139Z,3.87
2019-04-04T20:22:37.863Z,4.57
2019-04-04T20:25:06.684Z,4.63
2019-04-04T20:27:35.649Z,4.83
2019-04-04T20:30:05.611Z,4.53
2019-04-04T20:32:34.552Z,4.53
2019-04-04T20:35:03.663Z,5.03
2019-04-04T20:37:32.410Z,4.63
2019-04-04T20:40:01.050Z,4.00
2019-04-04T20:42:29.709Z,5.40
2019-04-04T20:44:59.174Z,4.83
2019-04-04T20:47:27.818Z,4.63
2019-04-04T20:49:56.483Z,5.10
2019-04-04T20:52:25.121Z,5.30
2019-04-04T20:54:53.791Z,5.00
2019-04-04T20:57:22.496Z,4.60
2019-04-04T20:59:51.139Z,4.83
2019-04-04T21:02:19.920Z,5.33
2019-04-04T21:04:48.546Z,4.43
2019-04-04T21:07:17.506Z,5.93
2019-04-04T21:09:46.495Z,5.40
2019-04-04T21:12:15.139Z,5.37
2019-04-04T21:14:44.081Z,4.87
2019-04-04T21:17:12.727Z,5.20
2019-04-04T21:19:41.356Z,4.60
2019-04-04T21:22:10.350Z,5.30
2019-04-04T21:24:38.967Z,5.20
2019-04-04T21:27:08.117Z,5.60
2019-04-04T21:29:36.759Z,5.53
2019-04-04T21:32:05.406Z,5.37
2019-04-04T21:34:34.723Z,5.40
2019-04-04T21:37:03.678Z,4.97
2019-04-04T21:39:32.671Z,5.00
2019-04-04T21:42:01.325Z,5.17
2019-04-04T21:44:29.979Z,5.87
2019-04-04T21:46:58.626Z,5.20
2019-04-04T21:49:27.266Z,5.00
2019-04-04T21:51:55.926Z,5.37
2019-04-04T21:56:22.367Z,4.70
2019-04-04T21:58:50.998Z,5.53
2019-04-04T22:01:19.823Z,5.60
2019-04-04T22:03:48.462Z,5.67
2019-04-04T22:06:17.712Z,4.93
2019-04-04T22:08:46.709Z,5.57
2019-04-04T22:11:15.686Z,4.87
2019-04-04T22:13:44.322Z,5.80
2019-04-04T22:16:12.970Z,5.20
2019-04-04T22:18:41.601Z,5.40
2019-04-04T22:21:10.255Z,5.50
2019-04-04T22:23:38.914Z,5.10
2019-04-04T22:26:07.564Z,5.37
2019-04-04T22:28:36.203Z,5.67
2019-04-04T22:31:05.187Z,5.10
2019-04-04T22:33:34.184Z,5.70
2019-04-04T22:36:02.847Z,5.50
2019-04-04T22:38:31.482Z,6.10
2019-04-04T22:41:00.138Z,5.50
2019-04-04T22:43:28.776Z,5.07
2019-04-04T22:45:57.414Z,5.60
2019-04-04T22:48:26.409Z,6.13
2019-04-04T22:50:55.079Z,5.63
2019-04-04T22:53:24.165Z,6.13
2019-04-04T22:55:52.819Z,5.77
2019-04-04T22:58:28.302Z,5.97
2019-04-04T23:00:51.931Z,5.63
2019-04-04T23:03:21.239Z,5.77
2019-04-04T23:05:50.519Z,5.70
2019-04-04T23:08:19.459Z,6.20
2019-04-04T23:10:48.369Z,5.93
2019-04-04T23:13:17.044Z,6.03
2019-04-04T23:15:46.516Z,5.97
2019-04-04T23:18:15.199Z,6.40
2019-04-04T23:20:44.256Z,6.30
2019-04-04T23:23:12.970Z,6.40
2019-04-04T23:25:41.742Z,6.30
2019-04-04T23:28:10.410Z,6.10
2019-04-04T23:30:39.121Z,6.47
2019-04-04T23:33:07.775Z,6.93
2019-04-04T23:35:36.470Z,6.33
2019-04-04T23:38:05.226Z,6.47
2019-04-04T23:40:33.969Z,6.50
2019-04-04T23:43:02.614Z,6.50
2019-04-04T23:45:31.271Z,6.47
2019-04-04T23:48:00.003Z,6.27
2019-04-04T23:50:29.288Z,7.10
2019-04-04T23:52:57.946Z,6.90
2019-04-04T23:55:26.613Z,6.90
